Terminal Aerodrome Forecast
Issued by NWS

Home | Current Version | Previous Version | Text Only | Print | Product List | Glossary On
Versions: 1 2 3 4 5 6 7 8 9 10 11 12 13 14
000
FTUS46 KMTR 221100
TAFSTS
TAF
KSTS 221120Z 2212/2312 VRB03KT P6SM SCT200
     FM222000 24006KT P6SM BKN200
     FM230300 VRB03KT P6SM BKN200
     FM230700 VRB03KT P6SM BKN008=

USA.gov is the U.S. government's official web portal to all federal, state and local government web resources and services.